sensor_id;sensor_type;location;lat;lon;timestamp;pressure;altitude;pressure_sealevel;temperature;humidity
6425;BME280;12193;42.642;23.384;2022-10-31T04:08:39;94997.81;;;13.69;72.49
6425;BME280;12193;42.642;23.384;2022-10-31T04:11:12;95005.09;;;13.60;72.41
6425;BME280;12193;42.642;23.384;2022-10-31T04:13:43;95002.72;;;13.46;72.59
6425;BME280;12193;42.642;23.384;2022-10-31T04:16:15;95002.59;;;13.22;73.75
6425;BME280;12193;42.642;23.384;2022-10-31T04:18:45;95009.38;;;13.29;73.69
6425;BME280;12193;42.642;23.384;2022-10-31T04:21:14;95009.78;;;13.26;74.11
6425;BME280;12193;42.642;23.384;2022-10-31T04:23:47;95011.03;;;13.04;75.19
6425;BME280;12193;42.642;23.384;2022-10-31T04:26:16;95008.03;;;12.94;75.46
6425;BME280;12193;42.642;23.384;2022-10-31T04:28:45;95003.03;;;12.93;76.35
6425;BME280;12193;42.642;23.384;2022-10-31T04:31:15;95017.03;;;12.85;76.76
6425;BME280;12193;42.642;23.384;2022-10-31T04:33:44;95016.47;;;13.03;76.29
6425;BME280;12193;42.642;23.384;2022-10-31T04:36:14;95006.00;;;13.16;75.62
6425;BME280;12193;42.642;23.384;2022-10-31T04:38:45;95015.47;;;13.04;76.19
6425;BME280;12193;42.642;23.384;2022-10-31T04:41:15;95001.81;;;13.08;76.15
6425;BME280;12193;42.642;23.384;2022-10-31T04:43:44;95011.44;;;12.95;77.06
6425;BME280;12193;42.642;23.384;2022-10-31T04:46:13;95014.88;;;13.02;76.89
6425;BME280;12193;42.642;23.384;2022-10-31T04:48:43;95020.28;;;13.00;77.04
6425;BME280;12193;42.642;23.384;2022-10-31T04:51:12;95018.00;;;13.30;75.74
6425;BME280;12193;42.642;23.384;2022-10-31T04:53:41;95019.84;;;13.29;75.64
6425;BME280;12193;42.642;23.384;2022-10-31T04:56:13;95027.44;;;13.37;77.01
6425;BME280;12193;42.642;23.384;2022-10-31T04:58:42;95027.25;;;13.32;76.16
6425;BME280;12193;42.642;23.384;2022-10-31T05:01:12;95035.31;;;13.18;76.63
6425;BME280;12193;42.642;23.384;2022-10-31T05:03:41;95029.50;;;12.90;76.97
6425;BME280;12193;42.642;23.384;2022-10-31T05:06:11;95030.31;;;12.97;78.65
6425;BME280;12193;42.642;23.384;2022-10-31T05:08:40;95026.09;;;13.02;76.77
6425;BME280;12193;42.642;23.384;2022-10-31T05:11:09;95030.69;;;12.74;78.79
6425;BME280;12193;42.642;23.384;2022-10-31T05:13:41;95045.16;;;12.90;79.83
6425;BME280;12193;42.642;23.384;2022-10-31T05:16:10;95023.28;;;13.17;77.52
6425;BME280;12193;42.642;23.384;2022-10-31T05:18:39;95038.75;;;13.05;77.92
6425;BME280;12193;42.642;23.384;2022-10-31T05:21:09;95040.28;;;13.45;77.53
6425;BME280;12193;42.642;23.384;2022-10-31T05:23:38;95047.28;;;13.57;77.00
6425;BME280;12193;42.642;23.384;2022-10-31T05:26:07;95056.38;;;13.16;76.90
6425;BME280;12193;42.642;23.384;2022-10-31T05:28:36;95053.34;;;13.26;77.08
6425;BME280;12193;42.642;23.384;2022-10-31T05:31:08;95055.19;;;13.19;77.58
6425;BME280;12193;42.642;23.384;2022-10-31T05:33:38;95052.56;;;13.25;77.15
6425;BME280;12193;42.642;23.384;2022-10-31T05:36:08;95060.78;;;12.64;78.97
6425;BME280;12193;42.642;23.384;2022-10-31T05:38:37;95058.97;;;12.51;79.72
6425;BME280;12193;42.642;23.384;2022-10-31T05:41:06;95064.41;;;12.63;79.80
6425;BME280;12193;42.642;23.384;2022-10-31T05:43:36;95065.41;;;12.68;79.31
6425;BME280;12193;42.642;23.384;2022-10-31T05:46:05;95059.19;;;12.69;79.61
6425;BME280;12193;42.642;23.384;2022-10-31T05:48:37;95065.63;;;12.73;78.98
6425;BME280;12193;42.642;23.384;2022-10-31T05:51:06;95069.59;;;12.56;79.48
6425;BME280;12193;42.642;23.384;2022-10-31T05:53:35;95070.97;;;12.46;80.85
6425;BME280;12193;42.642;23.384;2022-10-31T05:56:05;95073.00;;;12.50;81.34
6425;BME280;12193;42.642;23.384;2022-10-31T05:58:34;95074.41;;;12.53;80.39
6425;BME280;12193;42.642;23.384;2022-10-31T06:01:04;95070.81;;;12.67;79.83
6425;BME280;12193;42.642;23.384;2022-10-31T06:03:35;95079.28;;;12.88;79.62
6425;BME280;12193;42.642;23.384;2022-10-31T06:06:05;95084.28;;;13.35;77.21
6425;BME280;12193;42.642;23.384;2022-10-31T06:08:35;95084.44;;;14.23;72.52
6425;BME280;12193;42.642;23.384;2022-10-31T06:11:04;95082.53;;;15.53;67.59
6425;BME280;12193;42.642;23.384;2022-10-31T06:13:34;95082.91;;;16.46;62.83
6425;BME280;12193;42.642;23.384;2022-10-31T06:16:04;95090.63;;;17.11;60.12
6425;BME280;12193;42.642;23.384;2022-10-31T06:18:36;95080.06;;;17.64;57.65
6425;BME280;12193;42.642;23.384;2022-10-31T06:21:05;95087.97;;;18.37;54.36
6425;BME280;12193;42.642;23.384;2022-10-31T06:23:34;95090.72;;;18.70;53.27
6425;BME280;12193;42.642;23.384;2022-10-31T06:26:04;95100.13;;;19.55;50.22
6425;BME280;12193;42.642;23.384;2022-10-31T06:28:33;95087.72;;;19.72;49.52
6425;BME280;12193;42.642;23.384;2022-10-31T06:31:03;95097.72;;;20.93;46.15
6425;BME280;12193;42.642;23.384;2022-10-31T06:33:32;95091.25;;;21.05;45.05
6425;BME280;12193;42.642;23.384;2022-10-31T06:36:05;95103.31;;;20.97;45.43
6425;BME280;12193;42.642;23.384;2022-10-31T06:38:34;95106.34;;;20.84;45.53
6425;BME280;12193;42.642;23.384;2022-10-31T06:41:04;95101.25;;;20.56;46.34
6425;BME280;12193;42.642;23.384;2022-10-31T06:43:33;95097.47;;;20.47;46.69
6425;BME280;12193;42.642;23.384;2022-10-31T06:46:04;95100.25;;;20.62;46.90
6425;BME280;12193;42.642;23.384;2022-10-31T06:48:33;95105.03;;;20.38;47.52
6425;BME280;12193;42.642;23.384;2022-10-31T06:51:05;95105.53;;;20.19;47.83
6425;BME280;12193;42.642;23.384;2022-10-31T06:53:34;95100.78;;;20.37;47.77
6425;BME280;12193;42.642;23.384;2022-10-31T06:56:04;95107.66;;;20.38;48.08
6425;BME280;12193;42.642;23.384;2022-10-31T06:58:34;95107.34;;;20.56;47.87
6425;BME280;12193;42.642;23.384;2022-10-31T07:01:03;95107.84;;;21.01;46.49
6425;BME280;12193;42.642;23.384;2022-10-31T07:03:32;95104.47;;;21.05;46.20
6425;BME280;12193;42.642;23.384;2022-10-31T07:06:01;95109.16;;;20.98;46.08
6425;BME280;12193;42.642;23.384;2022-10-31T07:08:33;95106.63;;;21.40;45.56
6425;BME280;12193;42.642;23.384;2022-10-31T07:11:03;95098.09;;;21.33;45.23
6425;BME280;12193;42.642;23.384;2022-10-31T07:13:32;95102.31;;;21.97;44.13
6425;BME280;12193;42.642;23.384;2022-10-31T07:16:03;95098.63;;;21.61;44.73
6425;BME280;12193;42.642;23.384;2022-10-31T07:18:34;95104.66;;;21.30;45.25
6425;BME280;12193;42.642;23.384;2022-10-31T07:21:03;95093.03;;;21.58;45.07
6425;BME280;12193;42.642;23.384;2022-10-31T07:23:36;95087.97;;;21.56;45.40
6425;BME280;12193;42.642;23.384;2022-10-31T07:26:05;95084.31;;;21.99;44.32
6425;BME280;12193;42.642;23.384;2022-10-31T07:28:34;95083.91;;;22.21;43.55
6425;BME280;12193;42.642;23.384;2022-10-31T07:31:03;95076.66;;;22.02;44.46
6425;BME280;12193;42.642;23.384;2022-10-31T07:33:32;95077.97;;;22.04;44.16
6425;BME280;12193;42.642;23.384;2022-10-31T07:36:02;95077.78;;;22.16;43.89
6425;BME280;12193;42.642;23.384;2022-10-31T07:38:34;95078.06;;;22.19;44.08
6425;BME280;12193;42.642;23.384;2022-10-31T07:41:04;95081.56;;;22.30;43.67
6425;BME280;12193;42.642;23.384;2022-10-31T07:43:34;95080.63;;;22.51;43.04
6425;BME280;12193;42.642;23.384;2022-10-31T07:46:03;95085.00;;;22.30;43.42
6425;BME280;12193;42.642;23.384;2022-10-31T07:48:32;95083.00;;;21.60;44.87
6425;BME280;12193;42.642;23.384;2022-10-31T07:51:02;95087.03;;;21.41;45.82
6425;BME280;12193;42.642;23.384;2022-10-31T07:53:35;95089.41;;;20.58;47.83
6425;BME280;12193;42.642;23.384;2022-10-31T07:56:05;95092.44;;;20.93;47.40
6425;BME280;12193;42.642;23.384;2022-10-31T07:58:34;95093.13;;;20.84;47.85
6425;BME280;12193;42.642;23.384;2022-10-31T08:01:03;95096.00;;;21.35;46.36
6425;BME280;12193;42.642;23.384;2022-10-31T08:03:33;95093.88;;;21.63;45.77
6425;BME280;12193;42.642;23.384;2022-10-31T08:06:03;95084.88;;;22.01;44.95
6425;BME280;12193;42.642;23.384;2022-10-31T08:08:35;95082.44;;;22.40;43.34
6425;BME280;12193;42.642;23.384;2022-10-31T08:11:05;95081.53;;;22.25;44.21
6425;BME280;12193;42.642;23.384;2022-10-31T08:13:34;95083.91;;;22.26;44.50
6425;BME280;12193;42.642;23.384;2022-10-31T08:16:04;95079.97;;;22.29;43.61
6425;BME280;12193;42.642;23.384;2022-10-31T08:18:33;95074.00;;;22.53;43.10
6425;BME280;12193;42.642;23.384;2022-10-31T08:21:03;95081.63;;;22.40;43.26
6425;BME280;12193;42.642;23.384;2022-10-31T08:23:35;95087.78;;;22.55;43.57
6425;BME280;12193;42.642;23.384;2022-10-31T08:26:05;95091.84;;;22.16;44.64
6425;BME280;12193;42.642;23.384;2022-10-31T08:28:34;95095.78;;;22.14;44.50
6425;BME280;12193;42.642;23.384;2022-10-31T08:31:03;95082.28;;;22.72;43.20
6425;BME280;12193;42.642;23.384;2022-10-31T08:33:33;95081.28;;;22.93;42.23
